Time;durP1;ratioP1;P1;durP2;ratioP2;P2;SDS_P1;SDS_P2;PMS_P1;PMS_P2;Temp;Humidity;BMP_temperature;BMP_pressure;BME280_temperature;BME280_humidity;BME280_pressure;Samples;Min_cycle;Max_cycle;Signal;HPM_P1;HPM_P2
2021/01/18 00:00:58;;;;;;;18.67;4.82;;;5.60;98.10;;;;;;4998630;28;20022;-88
2021/01/18 00:03:24;;;;;;;19.50;5.22;;;5.60;98.10;;;;;;5013725;28;20030;-88
2021/01/18 00:05:49;;;;;;;15.68;4.97;;;5.60;98.10;;;;;;5008832;28;20044;-89
2021/01/18 00:08:15;;;;;;;14.70;5.03;;;5.60;98.10;;;;;;5017747;28;20025;-93
2021/01/18 00:10:41;;;;;;;16.63;5.78;;;5.50;98.10;;;;;;5001770;28;20030;-89
2021/01/18 00:13:07;;;;;;;20.67;5.70;;;5.50;98.00;;;;;;5017884;28;20087;-89
2021/01/18 00:15:32;;;;;;;26.98;7.50;;;5.50;97.90;;;;;;5017832;28;20037;-89
2021/01/18 00:17:58;;;;;;;29.95;8.05;;;5.50;97.80;;;;;;5018125;28;20496;-89
2021/01/18 00:20:24;;;;;;;20.35;7.03;;;5.40;97.50;;;;;;5001376;28;20557;-89
2021/01/18 00:22:50;;;;;;;12.43;5.38;;;5.40;97.70;;;;;;5017687;28;20104;-89
2021/01/18 00:25:19;;;;;;;25.13;7.20;;;5.40;97.90;;;;;;5033446;28;20132;-88
2021/01/18 00:27:45;;;;;;;19.17;6.85;;;5.30;97.70;;;;;;5037609;28;20025;-88
2021/01/18 00:30:13;;;;;;;23.90;7.72;;;5.30;97.60;;;;;;5054855;28;20036;-88
2021/01/18 00:32:40;;;;;;;19.30;7.50;;;5.30;97.70;;;;;;5017231;28;20543;-88
2021/01/18 00:35:08;;;;;;;19.70;8.10;;;5.20;97.50;;;;;;5014192;28;20033;-88
2021/01/18 00:37:51;;;;;;;18.95;7.13;;;5.20;97.70;;;;;;5020321;28;20032;-88
2021/01/18 00:40:18;;;;;;;29.55;8.65;;;5.20;97.60;;;;;;5037308;28;20064;-88
2021/01/18 00:42:45;;;;;;;25.42;7.63;;;5.20;97.50;;;;;;5034160;28;20116;-88
2021/01/18 00:45:14;;;;;;;17.38;6.38;;;5.10;97.50;;;;;;5046935;28;20036;-88
2021/01/18 00:47:48;;;;;;;28.35;7.25;;;5.20;97.80;;;;;;5037151;28;20056;-88
2021/01/18 00:50:15;;;;;;;21.52;7.80;;;5.20;97.70;;;;;;5037237;28;20025;-88
2021/01/18 00:52:42;;;;;;;21.85;7.45;;;5.10;97.70;;;;;;5003907;28;20037;-89
2021/01/18 00:55:11;;;;;;;20.02;7.03;;;5.10;97.80;;;;;;5020956;28;20460;-89
2021/01/18 00:57:37;;;;;;;16.05;7.32;;;5.10;97.80;;;;;;5036344;28;20033;-88
2021/01/18 01:00:07;;;;;;;15.82;7.20;;;5.20;97.80;;;;;;5020307;28;20023;-88
2021/01/18 01:02:32;;;;;;;19.50;9.38;;;5.20;97.80;;;;;;5034942;28;20439;-89
2021/01/18 01:04:58;;;;;;;30.23;10.07;;;5.10;97.80;;;;;;5019750;28;20040;-88
2021/01/18 01:07:24;;;;;;;22.05;7.93;;;5.10;97.70;;;;;;5036412;28;20504;-89
2021/01/18 01:09:49;;;;;;;22.30;8.98;;;5.10;97.80;;;;;;5036916;28;20430;-87
2021/01/18 01:12:20;;;;;;;19.05;8.73;;;5.10;97.70;;;;;;5036732;28;20025;-89
2021/01/18 01:14:45;;;;;;;23.42;8.00;;;5.10;97.80;;;;;;5053032;28;20021;-89
2021/01/18 01:17:11;;;;;;;24.38;8.25;;;5.10;97.80;;;;;;5019947;28;20043;-88
2021/01/18 01:19:37;;;;;;;27.42;8.73;;;5.10;97.80;;;;;;5023666;28;20036;-86
2021/01/18 01:22:02;;;;;;;20.90;9.40;;;5.10;97.70;;;;;;5035290;28;20036;-89
2021/01/18 01:24:28;;;;;;;18.25;7.82;;;5.10;97.80;;;;;;5002323;28;20029;-88
2021/01/18 01:26:53;;;;;;;24.10;8.35;;;5.10;97.90;;;;;;5016743;28;20041;-88
2021/01/18 01:29:19;;;;;;;28.27;10.02;;;5.10;97.70;;;;;;5016303;28;20080;-88
2021/01/18 01:31:45;;;;;;;20.38;8.27;;;5.10;97.70;;;;;;5015853;28;20036;-89
2021/01/18 01:34:11;;;;;;;16.13;7.13;;;5.10;97.70;;;;;;4980261;28;20120;-89
2021/01/18 01:36:44;;;;;;;16.60;7.07;;;5.10;97.80;;;;;;4997140;28;20144;-88
2021/01/18 01:39:10;;;;;;;16.98;6.82;;;5.10;97.90;;;;;;5015985;28;20029;-88
2021/01/18 01:41:36;;;;;;;21.60;6.47;;;5.10;97.80;;;;;;5012642;28;20473;-88
2021/01/18 01:44:02;;;;;;;19.63;7.35;;;5.10;97.80;;;;;;4999993;28;20025;-88
2021/01/18 01:46:28;;;;;;;18.48;6.50;;;5.10;97.70;;;;;;5000262;28;20129;-88
2021/01/18 01:48:54;;;;;;;20.67;7.47;;;5.10;97.80;;;;;;4988861;28;20105;-88
2021/01/18 01:51:22;;;;;;;18.85;6.80;;;5.10;97.80;;;;;;5014704;28;20021;-88
2021/01/18 01:53:48;;;;;;;18.92;6.97;;;5.10;97.80;;;;;;4990713;28;20060;-88
2021/01/18 01:56:14;;;;;;;22.05;7.72;;;5.00;97.70;;;;;;4982563;28;20040;-88
2021/01/18 01:58:39;;;;;;;19.23;7.18;;;5.00;97.70;;;;;;4980396;28;20026;-88
2021/01/18 02:01:05;;;;;;;19.95;7.88;;;5.00;97.70;;;;;;4993852;28;20389;-88
2021/01/18 02:03:42;;;;;;;17.85;6.55;;;5.00;97.70;;;;;;5002515;28;20029;-88
2021/01/18 02:06:09;;;;;;;19.15;7.50;;;5.00;97.70;;;;;;5000197;28;20512;-88
2021/01/18 02:08:35;;;;;;;16.35;7.07;;;5.00;97.60;;;;;;4997367;28;20029;-89
2021/01/18 02:11:01;;;;;;;27.20;8.40;;;4.90;97.70;;;;;;5019841;28;20028;-89
2021/01/18 02:14:04;;;;;;;18.55;8.32;;;4.90;97.50;;;;;;5016709;28;20038;-91
2021/01/18 02:16:45;;;;;;;19.90;6.75;;;4.90;97.40;;;;;;5020647;28;20064;-90
2021/01/18 02:19:26;;;;;;;20.98;6.63;;;4.80;97.30;;;;;;5047915;28;20021;-89
2021/01/18 02:22:03;;;;;;;17.42;7.03;;;4.80;97.50;;;;;;5045522;28;20028;-88
2021/01/18 02:24:50;;;;;;;20.25;7.00;;;4.80;97.50;;;;;;5009857;28;20037;-90
2021/01/18 02:27:49;;;;;;;14.88;6.47;;;4.80;97.50;;;;;;5056908;28;20496;-87
2021/01/18 02:30:40;;;;;;;22.08;7.97;;;4.80;97.70;;;;;;5035349;28;20057;-88
2021/01/18 02:33:40;;;;;;;20.95;7.15;;;4.80;97.50;;;;;;5041336;28;20026;-88
2021/01/18 02:36:13;;;;;;;13.73;6.53;;;4.80;97.50;;;;;;5019930;28;20025;-88
2021/01/18 02:38:54;;;;;;;15.43;6.90;;;4.80;97.70;;;;;;5047388;28;20033;-88
2021/01/18 02:41:37;;;;;;;17.08;6.82;;;4.80;97.80;;;;;;5053024;28;20128;-88
2021/01/18 02:44:06;;;;;;;19.27;7.15;;;4.80;97.80;;;;;;5034845;28;20102;-88
2021/01/18 02:46:35;;;;;;;15.50;6.95;;;4.80;97.70;;;;;;5052466;28;20033;-88
2021/01/18 02:49:04;;;;;;;15.88;7.88;;;4.80;97.80;;;;;;5052735;28;20052;-88
2021/01/18 02:51:32;;;;;;;21.35;8.07;;;4.80;97.60;;;;;;5034983;28;20021;-88
2021/01/18 02:54:00;;;;;;;25.88;8.40;;;4.80;97.60;;;;;;5034139;28;20039;-88
2021/01/18 02:56:34;;;;;;;17.90;8.15;;;4.80;97.60;;;;;;5035205;28;20132;-88
2021/01/18 02:59:02;;;;;;;12.10;6.50;;;4.70;97.50;;;;;;5018170;28;20026;-88
2021/01/18 03:01:48;;;;;;;22.33;7.95;;;4.70;97.70;;;;;;5032132;28;20469;-88
2021/01/18 03:04:43;;;;;;;21.13;7.40;;;4.70;97.50;;;;;;5052698;28;20056;-88
2021/01/18 03:07:42;;;;;;;17.38;7.00;;;4.70;97.50;;;;;;5032488;28;20064;-88
2021/01/18 03:10:25;;;;;;;22.08;8.50;;;4.70;97.50;;;;;;5051485;28;20052;-87
2021/01/18 03:13:18;;;;;;;21.40;7.63;;;4.60;97.40;;;;;;5052161;28;20364;-89
2021/01/18 03:15:46;;;;;;;19.42;7.75;;;4.60;97.50;;;;;;5034701;28;20426;-89
2021/01/18 03:18:17;;;;;;;22.73;8.32;;;4.60;97.40;;;;;;5052641;28;20029;-88
2021/01/18 03:20:44;;;;;;;25.05;7.88;;;4.60;97.40;;;;;;5034566;28;20020;-89
2021/01/18 03:23:10;;;;;;;19.35;8.02;;;4.60;97.50;;;;;;5034582;28;20028;-88
2021/01/18 03:25:51;;;;;;;21.50;7.78;;;4.50;97.40;;;;;;5017777;28;20056;-89
2021/01/18 03:28:17;;;;;;;14.98;7.30;;;4.50;97.50;;;;;;5025199;28;20082;-88
2021/01/18 03:30:43;;;;;;;15.90;7.78;;;4.50;97.50;;;;;;5055952;28;20025;-88
2021/01/18 03:33:09;;;;;;;24.88;9.55;;;4.50;97.60;;;;;;5019614;28;20024;-88
2021/01/18 03:35:35;;;;;;;30.05;10.35;;;4.50;97.40;;;;;;5021693;28;20025;-90
2021/01/18 03:38:01;;;;;;;20.58;8.48;;;4.50;97.30;;;;;;5022224;28;20465;-88
2021/01/18 03:40:27;;;;;;;21.60;8.00;;;4.50;97.30;;;;;;5038011;28;20445;-88
2021/01/18 03:42:58;;;;;;;22.10;8.23;;;4.40;97.30;;;;;;5021546;28;20029;-88
2021/01/18 03:45:26;;;;;;;18.23;8.13;;;4.40;97.30;;;;;;5038402;28;20040;-88
2021/01/18 03:47:52;;;;;;;18.42;8.00;;;4.40;97.40;;;;;;5055591;28;20588;-88
2021/01/18 03:50:17;;;;;;;26.38;11.07;;;4.40;97.50;;;;;;5022228;28;20044;-88
2021/01/18 03:52:50;;;;;;;30.30;10.07;;;4.40;97.40;;;;;;5037768;28;20100;-88
2021/01/18 03:55:17;;;;;;;21.48;9.10;;;4.40;97.40;;;;;;5020978;28;20358;-88
2021/01/18 03:57:47;;;;;;;30.73;10.38;;;4.40;97.30;;;;;;5055245;28;20086;-88
2021/01/18 04:00:13;;;;;;;18.63;7.70;;;4.40;97.40;;;;;;5055632;28;20518;-88
2021/01/18 04:02:40;;;;;;;28.00;7.95;;;4.30;97.50;;;;;;5037734;28;20356;-87
2021/01/18 04:05:06;;;;;;;18.55;8.18;;;4.40;97.50;;;;;;5021656;28;20033;-88
2021/01/18 04:07:32;;;;;;;21.40;9.18;;;4.30;97.40;;;;;;5037664;28;20025;-88
2021/01/18 04:09:58;;;;;;;21.60;7.85;;;4.40;97.50;;;;;;5037392;28;20029;-88
2021/01/18 04:12:23;;;;;;;21.42;8.90;;;4.40;97.60;;;;;;5021392;28;20122;-88
2021/01/18 04:14:51;;;;;;;28.42;10.02;;;4.30;97.60;;;;;;5021089;28;20075;-88
2021/01/18 04:17:17;;;;;;;24.15;10.75;;;4.30;97.40;;;;;;5021222;28;20204;-88
2021/01/18 04:19:43;;;;;;;29.02;10.52;;;4.30;97.40;;;;;;5055252;28;20122;-88
2021/01/18 04:22:09;;;;;;;20.77;9.65;;;4.30;97.40;;;;;;5055102;28;20025;-88
2021/01/18 04:24:35;;;;;;;27.30;10.10;;;4.30;97.40;;;;;;5012558;28;20519;-89
2021/01/18 04:27:01;;;;;;;25.33;9.93;;;4.30;97.50;;;;;;5027517;28;20030;-89
2021/01/18 04:29:28;;;;;;;33.78;12.43;;;4.20;97.60;;;;;;5053423;28;20036;-88
2021/01/18 04:31:53;;;;;;;25.83;10.30;;;4.20;97.40;;;;;;5036184;28;20017;-90
2021/01/18 04:34:20;;;;;;;18.02;8.90;;;4.20;97.50;;;;;;5055155;28;20412;-88
2021/01/18 04:36:46;;;;;;;30.73;10.95;;;4.20;97.50;;;;;;5054747;28;20021;-88
2021/01/18 04:39:11;;;;;;;22.77;9.75;;;4.30;97.60;;;;;;5020123;28;20028;-88
2021/01/18 04:41:41;;;;;;;26.75;10.70;;;4.30;97.60;;;;;;5054784;28;20070;-88
2021/01/18 04:44:08;;;;;;;29.00;11.50;;;4.30;97.60;;;;;;5054838;28;20029;-88
2021/01/18 04:46:40;;;;;;;28.90;11.75;;;4.30;97.50;;;;;;5018251;28;20453;-88
2021/01/18 04:49:06;;;;;;;27.05;10.60;;;4.30;97.60;;;;;;5036431;28;20025;-88
2021/01/18 04:51:56;;;;;;;35.45;12.02;;;4.30;97.70;;;;;;5036507;28;20025;-88
2021/01/18 04:54:23;;;;;;;33.33;11.50;;;4.30;97.60;;;;;;5054606;28;20112;-88
2021/01/18 04:57:04;;;;;;;30.35;10.93;;;4.30;97.90;;;;;;5036609;28;20051;-88
2021/01/18 04:59:39;;;;;;;22.33;11.25;;;4.30;97.60;;;;;;5036828;28;20028;-88
2021/01/18 05:02:19;;;;;;;39.67;12.90;;;4.30;97.70;;;;;;5036275;28;20017;-88
2021/01/18 05:04:46;;;;;;;25.83;10.88;;;4.30;97.60;;;;;;5054042;28;20519;-87
2021/01/18 05:07:15;;;;;;;29.83;12.45;;;4.30;97.70;;;;;;5040178;28;20048;-89
2021/01/18 05:09:55;;;;;;;32.65;12.02;;;4.30;97.70;;;;;;5036568;28;20067;-88
2021/01/18 05:12:20;;;;;;;34.05;12.60;;;4.40;97.70;;;;;;5019724;28;20053;-88
2021/01/18 05:14:47;;;;;;;31.83;12.15;;;4.30;97.60;;;;;;5019942;28;20059;-88
2021/01/18 05:17:41;;;;;;;29.90;11.43;;;4.40;97.80;;;;;;5020152;28;20487;-89
2021/01/18 05:20:15;;;;;;;31.05;12.77;;;4.30;97.80;;;;;;5036508;28;20473;-87
2021/01/18 05:22:43;;;;;;;27.58;11.15;;;4.30;97.70;;;;;;5036524;28;20465;-88
2021/01/18 05:25:10;;;;;;;37.58;13.65;;;4.30;97.70;;;;;;5019837;28;20045;-88
2021/01/18 05:28:01;;;;;;;27.77;12.20;;;4.30;97.70;;;;;;5054354;28;20082;-88
2021/01/18 05:30:28;;;;;;;30.20;11.07;;;4.40;97.80;;;;;;5053950;28;20025;-89
2021/01/18 05:33:01;;;;;;;34.00;12.75;;;4.40;97.80;;;;;;5035753;28;20029;-87
2021/01/18 05:35:27;;;;;;;35.17;12.45;;;4.40;97.70;;;;;;5036074;28;20033;-88
2021/01/18 05:38:13;;;;;;;44.63;14.43;;;4.30;97.70;;;;;;5003256;28;20500;-88
2021/01/18 05:40:47;;;;;;;43.80;14.25;;;4.30;97.70;;;;;;5054170;28;20109;-88
2021/01/18 05:43:14;;;;;;;36.28;14.38;;;4.40;97.70;;;;;;5032855;28;20486;-88
2021/01/18 05:45:41;;;;;;;31.98;12.88;;;4.30;97.70;;;;;;4999607;28;20485;-87
2021/01/18 05:48:09;;;;;;;38.20;14.75;;;4.30;97.80;;;;;;5033840;28;20065;-87
2021/01/18 05:50:36;;;;;;;35.88;13.45;;;4.30;97.60;;;;;;5036028;28;20112;-87
2021/01/18 05:53:22;;;;;;;36.75;14.13;;;4.30;97.70;;;;;;5030512;28;20036;-88
2021/01/18 05:55:48;;;;;;;42.63;15.85;;;4.30;97.70;;;;;;5045702;28;20027;-90
2021/01/18 05:58:33;;;;;;;38.33;14.68;;;4.30;97.70;;;;;;5036046;28;20051;-90
2021/01/18 06:00:59;;;;;;;39.55;13.65;;;4.30;97.80;;;;;;5071519;28;20005;-88
2021/01/18 06:03:30;;;;;;;28.92;12.05;;;4.30;97.80;;;;;;5050074;28;20025;-88
2021/01/18 06:05:56;;;;;;;30.73;12.38;;;4.40;98.00;;;;;;5034108;28;20037;-88
2021/01/18 06:08:26;;;;;;;46.60;13.40;;;4.30;97.80;;;;;;5049815;28;20033;-88
2021/01/18 06:10:57;;;;;;;34.55;13.18;;;4.30;97.80;;;;;;5040288;28;20048;-88
2021/01/18 06:13:28;;;;;;;51.70;15.73;;;4.30;97.90;;;;;;5051225;28;20036;-87
2021/01/18 06:15:59;;;;;;;42.47;13.80;;;4.30;97.70;;;;;;5034766;28;20025;-88
2021/01/18 06:18:27;;;;;;;39.75;15.00;;;4.30;97.80;;;;;;5026170;28;20041;-88
2021/01/18 06:21:01;;;;;;;39.28;13.50;;;4.30;97.80;;;;;;5034867;28;20583;-89
2021/01/18 06:23:27;;;;;;;35.75;13.40;;;4.30;97.80;;;;;;5025587;28;20045;-87
2021/01/18 06:25:54;;;;;;;46.83;15.45;;;4.40;97.80;;;;;;5007068;28;20123;-88
2021/01/18 06:28:31;;;;;;;46.45;15.63;;;4.30;97.70;;;;;;4997471;28;20037;-88
2021/01/18 06:31:06;;;;;;;38.00;12.98;;;4.40;97.80;;;;;;5011347;28;20664;-87
2021/01/18 06:33:45;;;;;;;35.92;12.23;;;4.30;97.80;;;;;;5013675;28;20018;-89
2021/01/18 06:36:13;;;;;;;41.03;14.50;;;4.30;97.90;;;;;;5010792;28;20401;-89
2021/01/18 06:38:41;;;;;;;32.75;13.38;;;4.30;97.70;;;;;;5027815;28;20518;-89
2021/01/18 06:41:08;;;;;;;33.97;13.18;;;4.30;97.90;;;;;;5031341;28;20112;-87
2021/01/18 06:43:34;;;;;;;35.83;13.13;;;4.30;97.90;;;;;;5015415;28;20072;-88
2021/01/18 06:46:13;;;;;;;48.50;15.30;;;4.30;97.90;;;;;;5015460;28;20473;-87
2021/01/18 06:48:41;;;;;;;42.97;16.63;;;4.40;98.00;;;;;;5007292;28;20022;-86
2021/01/18 06:51:13;;;;;;;51.08;17.88;;;4.30;97.90;;;;;;5014223;28;20017;-87
2021/01/18 06:53:42;;;;;;;65.68;19.98;;;4.30;97.80;;;;;;5005461;28;20761;-87
2021/01/18 06:56:11;;;;;;;45.35;18.23;;;4.30;97.90;;;;;;5011386;28;20029;-88
2021/01/18 06:58:55;;;;;;;56.75;18.77;;;4.20;98.00;;;;;;5014805;28;20381;-88
2021/01/18 07:01:32;;;;;;;51.67;18.98;;;4.20;98.00;;;;;;5027600;28;20025;-88
2021/01/18 07:04:09;;;;;;;61.05;21.17;;;4.20;97.90;;;;;;5025454;28;20116;-88
2021/01/18 07:06:37;;;;;;;68.13;22.60;;;4.20;97.90;;;;;;5017847;28;20061;-88
2021/01/18 07:09:07;;;;;;;52.92;19.77;;;4.20;97.90;;;;;;5024163;28;20064;-87
2021/01/18 07:11:33;;;;;;;75.88;24.50;;;4.20;98.00;;;;;;5035907;28;20025;-87
2021/01/18 07:14:03;;;;;;;47.33;17.83;;;4.20;98.00;;;;;;5018315;28;20121;-91
2021/01/18 07:16:29;;;;;;;60.65;23.92;;;4.20;98.10;;;;;;5035078;28;20029;-86
2021/01/18 07:18:59;;;;;;;40.67;18.60;;;4.20;98.00;;;;;;5018585;28;20531;-88
2021/01/18 07:21:30;;;;;;;60.90;22.13;;;4.20;98.10;;;;;;5029935;28;20026;-87
2021/01/18 07:23:58;;;;;;;44.75;19.20;;;4.20;98.10;;;;;;5022204;28;20109;-88
2021/01/18 07:26:55;;;;;;;64.57;23.90;;;4.20;98.10;;;;;;5025572;28;20098;-87
2021/01/18 07:29:23;;;;;;;71.15;24.65;;;4.10;98.10;;;;;;5016428;28;20029;-85
2021/01/18 07:31:55;;;;;;;54.60;21.75;;;4.10;98.10;;;;;;5003911;28;20022;-87
2021/01/18 07:34:24;;;;;;;66.53;26.20;;;4.10;98.20;;;;;;5016197;28;20167;-86
2021/01/18 07:36:51;;;;;;;48.28;19.52;;;4.10;98.20;;;;;;5023380;28;20030;-85
2021/01/18 07:39:24;;;;;;;48.10;19.65;;;4.20;98.30;;;;;;5017705;28;20037;-86
2021/01/18 07:41:49;;;;;;;49.72;20.27;;;4.20;98.30;;;;;;5017954;28;20017;-86
2021/01/18 07:44:38;;;;;;;70.40;26.50;;;4.20;98.30;;;;;;5001514;28;20430;-86
2021/01/18 07:47:12;;;;;;;50.80;23.58;;;4.20;98.30;;;;;;5023482;28;20030;-86
2021/01/18 07:49:42;;;;;;;64.40;24.92;;;4.20;98.40;;;;;;5017024;28;20481;-85
2021/01/18 07:52:25;;;;;;;60.70;24.27;;;4.20;98.50;;;;;;5001550;28;20388;-85
2021/01/18 07:54:52;;;;;;;77.40;27.13;;;4.20;98.50;;;;;;5015478;28;20017;-86
2021/01/18 07:57:39;;;;;;;67.05;25.80;;;4.20;98.50;;;;;;4999513;28;20477;-86
2021/01/18 08:00:18;;;;;;;57.17;22.95;;;4.20;98.50;;;;;;5016854;28;20026;-85
2021/01/18 08:02:47;;;;;;;61.90;26.42;;;4.20;98.50;;;;;;5004062;28;20025;-85
2021/01/18 08:05:40;;;;;;;68.80;25.52;;;4.20;98.50;;;;;;5000740;28;20187;-86
2021/01/18 08:08:14;;;;;;;57.20;24.05;;;4.20;98.60;;;;;;5013995;28;20033;-87
2021/01/18 08:11:00;;;;;;;60.42;26.75;;;4.20;98.60;;;;;;5000985;28;20029;-85
2021/01/18 08:13:48;;;;;;;44.85;21.00;;;4.20;98.60;;;;;;5016928;28;20051;-86
2021/01/18 08:16:39;;;;;;;68.05;28.30;;;4.20;98.60;;;;;;5017008;28;20052;-85
2021/01/18 08:19:14;;;;;;;69.43;24.60;;;4.20;98.60;;;;;;5013437;28;20096;-86
2021/01/18 08:21:47;;;;;;;50.63;22.00;;;4.30;98.60;;;;;;5027983;28;20017;-86
2021/01/18 08:24:36;;;;;;;47.83;20.50;;;4.30;98.70;;;;;;5028299;28;20535;-88
2021/01/18 08:27:01;;;;;;;59.35;24.70;;;4.30;98.70;;;;;;5027664;28;20041;-86
2021/01/18 08:29:50;;;;;;;74.85;27.63;;;4.30;98.70;;;;;;5013608;28;20137;-87
2021/01/18 08:32:33;;;;;;;61.47;25.70;;;4.30;98.70;;;;;;5021911;28;20111;-85
2021/01/18 08:35:02;;;;;;;58.20;23.35;;;4.30;98.70;;;;;;5027539;28;20097;-89
2021/01/18 08:37:30;;;;;;;59.55;25.67;;;4.40;98.70;;;;;;5020959;28;20029;-89
2021/01/18 08:39:57;;;;;;;48.97;21.10;;;4.30;98.70;;;;;;5006132;28;20038;-89
2021/01/18 08:42:27;;;;;;;78.15;28.50;;;4.40;98.70;;;;;;5013210;28;20029;-87
2021/01/18 08:45:02;;;;;;;55.80;25.52;;;4.40;98.70;;;;;;5021452;28;20029;-88
2021/01/18 08:47:47;;;;;;;70.03;27.10;;;4.40;98.70;;;;;;5018822;28;20029;-88
2021/01/18 08:50:20;;;;;;;63.97;26.25;;;4.40;98.70;;;;;;5007747;28;20110;-87
2021/01/18 08:52:47;;;;;;;57.80;25.90;;;4.50;98.70;;;;;;5009281;28;20025;-87
2021/01/18 08:55:36;;;;;;;46.08;20.55;;;4.50;98.70;;;;;;5015339;28;20029;-88
2021/01/18 08:58:03;;;;;;;57.33;25.45;;;4.50;98.80;;;;;;4976239;28;20046;-87
2021/01/18 09:00:48;;;;;;;64.57;26.50;;;4.50;98.70;;;;;;5024793;28;20041;-86
2021/01/18 09:03:18;;;;;;;69.25;28.85;;;4.50;98.70;;;;;;5023734;28;20590;-88
2021/01/18 09:05:45;;;;;;;61.30;26.52;;;4.50;98.80;;;;;;5004264;28;20045;-86
2021/01/18 09:08:16;;;;;;;64.00;27.73;;;4.60;98.80;;;;;;5011091;28;20029;-87
2021/01/18 09:10:55;;;;;;;53.33;25.95;;;4.60;98.80;;;;;;5009626;28;20121;-86
2021/01/18 09:13:28;;;;;;;73.72;30.20;;;4.50;98.90;;;;;;5013322;28;20072;-86
2021/01/18 09:15:55;;;;;;;51.50;25.17;;;4.60;98.90;;;;;;5021153;28;20125;-86
2021/01/18 09:18:22;;;;;;;59.63;27.77;;;4.60;99.00;;;;;;5015140;28;20037;-86
2021/01/18 09:20:50;;;;;;;71.18;28.92;;;4.60;99.00;;;;;;4997534;28;20025;-86
2021/01/18 09:23:16;;;;;;;60.88;29.10;;;4.70;99.10;;;;;;4999397;28;20026;-86
2021/01/18 09:25:42;;;;;;;50.50;25.75;;;4.70;99.00;;;;;;5013703;28;20500;-85
2021/01/18 09:28:15;;;;;;;65.70;29.02;;;4.70;99.10;;;;;;4989283;28;20037;-85
2021/01/18 09:30:43;;;;;;;56.22;26.88;;;4.80;99.00;;;;;;5009175;28;20033;-86
2021/01/18 09:33:11;;;;;;;56.78;27.02;;;4.80;99.00;;;;;;5015160;28;20025;-86
2021/01/18 09:35:42;;;;;;;59.15;27.45;;;4.80;99.00;;;;;;4991326;28;20034;-86
2021/01/18 09:38:09;;;;;;;54.45;26.48;;;4.80;99.00;;;;;;5010571;28;20022;-85
2021/01/18 09:40:37;;;;;;;66.53;28.15;;;4.80;99.00;;;;;;4978574;28;20033;-86
2021/01/18 09:43:04;;;;;;;56.30;24.85;;;4.80;99.00;;;;;;5011181;28;20009;-86
2021/01/18 09:45:30;;;;;;;54.80;25.52;;;4.80;99.00;;;;;;5015873;28;20059;-86
2021/01/18 09:48:07;;;;;;;58.60;25.27;;;4.80;99.00;;;;;;5021542;28;20026;-88
2021/01/18 09:50:34;;;;;;;59.63;24.92;;;4.90;99.00;;;;;;5016622;28;20022;-85
2021/01/18 09:53:05;;;;;;;48.58;22.95;;;4.90;99.00;;;;;;4999658;28;20036;-85
2021/01/18 09:55:36;;;;;;;51.72;24.25;;;4.90;99.00;;;;;;5022491;28;20121;-86
2021/01/18 09:58:19;;;;;;;64.90;23.52;;;4.90;99.00;;;;;;5003443;28;20018;-85
2021/01/18 10:00:47;;;;;;;47.03;23.13;;;4.90;98.90;;;;;;4997980;28;20018;-85
2021/01/18 10:03:28;;;;;;;48.67;23.65;;;4.90;99.00;;;;;;5007892;28;20018;-86
2021/01/18 10:06:13;;;;;;;;;;;4.90;99.00;;;;;;5009325;28;20381;-85
2021/01/18 10:08:41;;;;;;;47.55;22.60;;;5.00;99.00;;;;;;5007140;28;20273;-86
2021/01/18 10:11:08;;;;;;;50.67;23.65;;;5.00;99.00;;;;;;5009533;28;20034;-85
2021/01/18 10:13:35;;;;;;;49.80;23.90;;;5.00;99.00;;;;;;5017034;28;20089;-85
2021/01/18 10:16:11;;;;;;;37.85;19.85;;;5.00;99.00;;;;;;4986859;28;20030;-85
2021/01/18 10:18:45;;;;;;;42.90;22.17;;;5.00;99.00;;;;;;4997967;28;20064;-85
2021/01/18 10:21:12;;;;;;;42.33;20.52;;;5.00;99.00;;;;;;5012443;28;20057;-84
2021/01/18 10:23:40;;;;;;;49.22;22.42;;;5.10;99.00;;;;;;5022906;28;20059;-86
2021/01/18 10:26:24;;;;;;;43.40;21.70;;;5.00;98.90;;;;;;5024771;28;20532;-87
2021/01/18 10:28:53;;;;;;;37.75;21.60;;;5.00;98.90;;;;;;5018722;28;20113;-85
2021/01/18 10:31:34;;;;;;;43.25;20.52;;;5.00;98.90;;;;;;5023303;28;20496;-85
2021/01/18 10:34:09;;;;;;;;;;;5.10;99.00;;;;;;5005092;28;20026;-85
2021/01/18 10:36:34;;;;;;;44.05;21.45;;;5.10;99.00;;;;;;5011950;28;19996;-85
2021/01/18 10:39:00;;;;;;;45.70;22.55;;;5.10;98.90;;;;;;4987818;28;20117;-85
2021/01/18 10:41:32;;;;;;;47.17;22.58;;;5.10;98.90;;;;;;4998270;28;20061;-83
2021/01/18 10:44:06;;;;;;;44.22;21.73;;;5.10;98.90;;;;;;5026736;28;20060;-84
2021/01/18 10:46:33;;;;;;;41.53;21.77;;;5.20;98.90;;;;;;5022713;28;20022;-83
2021/01/18 10:49:00;;;;;;;41.58;21.15;;;5.20;98.80;;;;;;5006131;28;20053;-84
2021/01/18 10:51:29;;;;;;;49.08;21.67;;;5.20;98.80;;;;;;5008077;28;20505;-84
2021/01/18 10:53:57;;;;;;;39.72;21.63;;;5.30;98.80;;;;;;5006136;28;20053;-85
2021/01/18 10:56:33;;;;;;;35.33;20.45;;;5.30;98.60;;;;;;5003942;28;20034;-85
2021/01/18 10:59:00;;;;;;;41.58;19.55;;;5.30;98.60;;;;;;5008516;28;20104;-84
2021/01/18 11:01:26;;;;;;;40.85;20.77;;;5.40;98.60;;;;;;5021779;28;20018;-85
2021/01/18 11:03:52;;;;;;;36.67;20.52;;;5.40;98.50;;;;;;5023092;28;20033;-86
2021/01/18 11:06:20;;;;;;;37.67;19.88;;;5.40;98.40;;;;;;5004260;28;20065;-85
2021/01/18 11:08:53;;;;;;;36.88;21.02;;;5.50;98.50;;;;;;5028702;28;20033;-85
2021/01/18 11:11:28;;;;;;;37.22;19.40;;;5.50;98.30;;;;;;5026623;28;20024;-85
2021/01/18 11:14:06;;;;;;;47.38;20.38;;;5.40;98.30;;;;;;5002746;28;20052;-85
2021/01/18 11:16:32;;;;;;;40.28;19.02;;;5.50;98.20;;;;;;5015823;28;20037;-85
2021/01/18 11:18:59;;;;;;;36.50;18.02;;;5.50;98.20;;;;;;5031795;28;20026;-84
2021/01/18 11:21:26;;;;;;;33.97;16.95;;;5.50;98.20;;;;;;5014002;28;20100;-85
2021/01/18 11:23:53;;;;;;;37.15;17.58;;;5.50;98.20;;;;;;4998088;28;20116;-85
2021/01/18 11:26:18;;;;;;;32.75;17.70;;;5.50;98.10;;;;;;4986737;28;20494;-84
2021/01/18 11:28:45;;;;;;;28.63;17.92;;;5.60;98.00;;;;;;4995591;28;20041;-92
2021/01/18 11:31:11;;;;;;;33.97;16.60;;;5.50;97.90;;;;;;4992668;28;20052;-85
2021/01/18 11:33:37;;;;;;;36.60;17.95;;;5.60;98.00;;;;;;5000270;28;20125;-84
2021/01/18 11:36:03;;;;;;;32.20;17.20;;;5.60;97.90;;;;;;4998506;28;20125;-84
2021/01/18 11:38:29;;;;;;;31.30;16.63;;;5.60;98.00;;;;;;5012307;28;20037;-86
2021/01/18 11:40:54;;;;;;;41.72;18.05;;;5.60;97.90;;;;;;4988182;28;20030;-85
2021/01/18 11:43:20;;;;;;;32.65;17.85;;;5.70;97.90;;;;;;4994024;28;20037;-84
2021/01/18 11:45:45;;;;;;;32.50;14.98;;;5.70;97.80;;;;;;5000994;28;20030;-85
2021/01/18 11:48:11;;;;;;;31.17;14.93;;;5.70;97.70;;;;;;4994918;28;20455;-85
2021/01/18 11:50:37;;;;;;;25.85;12.35;;;5.70;97.60;;;;;;5001313;28;20029;-84
2021/01/18 11:53:03;;;;;;;29.40;12.23;;;5.70;97.50;;;;;;5000102;28;20100;-84
2021/01/18 11:55:29;;;;;;;23.05;10.82;;;5.70;97.50;;;;;;4980918;28;20033;-87
2021/01/18 11:57:54;;;;;;;24.42;10.93;;;5.70;97.50;;;;;;4982083;28;20156;-84
2021/01/18 12:00:22;;;;;;;21.25;11.25;;;5.80;97.40;;;;;;5013924;28;20389;-85
2021/01/18 12:02:50;;;;;;;23.75;11.57;;;5.70;97.50;;;;;;5008263;28;20033;-86
2021/01/18 12:05:16;;;;;;;22.00;9.63;;;5.80;97.50;;;;;;5013611;28;20025;-87
2021/01/18 12:07:45;;;;;;;24.58;10.68;;;5.80;97.20;;;;;;4997961;28;20037;-86
2021/01/18 12:10:11;;;;;;;27.98;10.50;;;5.70;97.30;;;;;;4997393;28;20363;-87
2021/01/18 12:12:37;;;;;;;24.27;10.00;;;5.70;97.20;;;;;;4990540;28;20034;-84
2021/01/18 12:15:03;;;;;;;26.00;9.65;;;5.70;97.20;;;;;;4989891;28;20419;-84
2021/01/18 12:17:34;;;;;;;24.65;10.38;;;5.70;97.10;;;;;;5011332;28;20101;-83
2021/01/18 12:20:00;;;;;;;19.58;9.18;;;5.80;97.30;;;;;;5028520;28;20113;-82
2021/01/18 12:22:25;;;;;;;22.80;8.85;;;5.70;97.00;;;;;;4994087;28;20030;-85
2021/01/18 12:24:51;;;;;;;18.83;9.00;;;5.80;97.10;;;;;;4984073;28;20095;-86
2021/01/18 12:27:17;;;;;;;25.60;9.23;;;5.80;97.20;;;;;;5000114;28;20057;-89
2021/01/18 12:29:42;;;;;;;21.80;8.27;;;5.80;97.10;;;;;;4983854;28;20540;-83
2021/01/18 12:32:08;;;;;;;25.50;8.70;;;5.90;97.10;;;;;;5014019;28;20084;-86
2021/01/18 12:34:33;;;;;;;21.55;8.63;;;5.90;97.00;;;;;;4999893;28;20034;-86
2021/01/18 12:36:59;;;;;;;25.02;8.73;;;6.00;97.20;;;;;;5000437;28;20037;-85
2021/01/18 12:39:25;;;;;;;23.40;9.52;;;6.00;97.00;;;;;;5016494;28;20497;-84
2021/01/18 12:41:51;;;;;;;21.38;9.00;;;5.90;97.00;;;;;;5016381;28;20167;-85
2021/01/18 12:44:17;;;;;;;27.35;9.60;;;6.00;97.00;;;;;;5017599;28;20029;-84
2021/01/18 12:46:42;;;;;;;21.88;8.35;;;6.00;97.10;;;;;;4999833;28;20120;-85
2021/01/18 12:49:08;;;;;;;20.67;8.50;;;6.00;97.10;;;;;;4983525;28;20026;-87
2021/01/18 12:51:34;;;;;;;22.88;7.97;;;6.00;97.00;;;;;;5000701;28;20029;-83
2021/01/18 12:54:00;;;;;;;26.83;8.90;;;6.00;97.00;;;;;;5016910;28;20040;-85
2021/01/18 12:56:28;;;;;;;22.63;8.85;;;6.00;97.10;;;;;;4980985;28;20034;-86
2021/01/18 12:58:55;;;;;;;25.55;9.10;;;6.10;97.10;;;;;;5010832;28;20040;-86